Time;durP1;ratioP1;P1;durP2;ratioP2;P2;SDS_P1;SDS_P2;PMS_P1;PMS_P2;Temp;Humidity;BMP_temperature;BMP_pressure;BME280_temperature;BME280_humidity;BME280_pressure;Samples;Min_cycle;Max_cycle;Signal;HPM_P1;HPM_P2
2022/09/08 00:00:16;;;;;;;;;;;;;;;20.33;36.34;100467.44;5006891;28;20368;-68
2022/09/08 00:02:45;;;;;;;;;;;;;;;20.30;36.29;100463.13;5001055;28;20648;-68
2022/09/08 00:05:15;;;;;;;;;;;;;;;20.28;36.15;100465.25;5006018;28;19930;-68
2022/09/08 00:07:43;;;;;;;;;;;;;;;20.26;36.48;100458.22;5012783;28;19928;-68
2022/09/08 00:10:11;;;;;;;;;;;;;;;20.21;37.72;100458.81;5003475;28;19955;-67
2022/09/08 00:12:41;;;;;;;;;;;;;;;20.19;36.84;100452.63;5007085;28;19921;-67
2022/09/08 00:15:10;;;;;;;;;;;;;;;20.16;37.07;100446.63;5001045;28;19953;-68
2022/09/08 00:17:38;;;;;;;;;;;;;;;20.12;37.55;100448.94;5002789;28;19929;-68
2022/09/08 00:20:08;;;;;;;;;;;;;;;20.11;36.79;100438.06;5005666;28;19933;-67
2022/09/08 00:22:36;;;;;;;;;;;;;;;20.07;36.72;100426.50;5002373;28;19953;-68
2022/09/08 00:25:03;;;;;;;;;;;;;;;20.05;36.96;100422.19;4994858;28;19922;-67
2022/09/08 00:27:31;;;;;;;;;;;;;;;20.02;36.96;100412.38;4996624;28;19921;-67
2022/09/08 00:29:59;;;;;;;;;;;;;;;20.01;36.29;100410.66;5004123;28;19976;-68
2022/09/08 00:32:26;;;;;;;;;;;;;;;19.99;36.73;100407.22;5003857;28;20302;-68
2022/09/08 00:34:55;;;;;;;;;;;;;;;19.96;37.30;100408.50;4998977;28;19922;-68
2022/09/08 00:37:26;;;;;;;;;;;;;;;19.96;36.93;100407.63;5003871;28;19939;-68
2022/09/08 00:39:53;;;;;;;;;;;;;;;19.97;36.68;100406.56;5006528;28;20599;-68
2022/09/08 00:42:21;;;;;;;;;;;;;;;19.96;37.05;100402.06;5004147;28;20389;-68
2022/09/08 00:44:49;;;;;;;;;;;;;;;19.95;36.67;100403.16;5006535;28;20036;-68
2022/09/08 00:47:20;;;;;;;;;;;;;;;19.94;37.32;100399.53;5006838;28;19956;-68
2022/09/08 00:49:50;;;;;;;;;;;;;;;19.94;37.17;100398.69;4999781;28;20059;-68
2022/09/08 01:02:27;;;;;;;;;;;;;;;19.90;37.04;100387.06;5048657;28;20328;-85
2022/09/08 01:05:01;;;;;;;;;;;;;;;19.90;36.77;100387.06;5068467;28;19920;-85
2022/09/08 01:54:00;;;;;;;;;;;;;;;19.95;37.42;100370.66;4923201;29;19994;-83
2022/09/08 01:56:30;;;;;;;;;;;;;;;19.97;37.10;100371.31;4928965;28;19956;-83
2022/09/08 01:58:57;;;;;;;;;;;;;;;20.01;36.85;100367.09;4948632;28;19929;-83
2022/09/08 02:01:25;;;;;;;;;;;;;;;20.04;37.32;100376.91;4954444;28;19926;-84
2022/09/08 02:03:53;;;;;;;;;;;;;;;20.07;36.77;100375.63;4973346;28;20199;-83
2022/09/08 02:06:20;;;;;;;;;;;;;;;20.09;36.82;100368.81;5014189;28;19967;-84
2022/09/08 02:08:50;;;;;;;;;;;;;;;20.13;36.97;100366.47;5049147;28;19928;-84
2022/09/08 02:11:19;;;;;;;;;;;;;;;20.15;36.82;100364.34;5067540;28;19925;-84
2022/09/08 02:13:47;;;;;;;;;;;;;;;20.17;36.87;100374.19;5054070;28;19928;-83
2022/09/08 02:16:15;;;;;;;;;;;;;;;20.18;37.13;100359.22;5042428;28;19921;-83
2022/09/08 02:18:43;;;;;;;;;;;;;;;20.20;37.02;100367.38;5037319;28;19929;-83
2022/09/08 02:21:13;;;;;;;;;;;;;;;20.23;36.93;100373.34;5070954;28;19928;-83
2022/09/08 02:23:42;;;;;;;;;;;;;;;20.25;36.87;100376.78;5078171;28;19939;-83
2022/09/08 02:26:15;;;;;;;;;;;;;;;20.26;37.25;100370.16;5075110;28;19930;-84
2022/09/08 02:28:45;;;;;;;;;;;;;;;20.28;36.84;100362.44;5074745;28;19920;-84
2022/09/08 02:31:13;;;;;;;;;;;;;;;20.30;37.07;100373.34;5095738;28;19951;-83
2022/09/08 02:33:41;;;;;;;;;;;;;;;20.32;36.77;100379.56;5083129;28;19955;-84
2022/09/08 02:36:09;;;;;;;;;;;;;;;20.33;37.18;100382.13;5084852;28;20151;-83
2022/09/08 02:38:37;;;;;;;;;;;;;;;20.34;36.95;100381.06;5079298;28;19926;-84
2022/09/08 02:41:06;;;;;;;;;;;;;;;20.34;37.22;100378.28;5079075;28;19992;-84
2022/09/08 02:43:34;;;;;;;;;;;;;;;20.36;36.59;100384.50;5090747;28;19921;-83
2022/09/08 02:46:29;;;;;;;;;;;;;;;20.37;37.12;100388.97;5089978;28;19946;-83
2022/09/08 02:49:21;;;;;;;;;;;;;;;20.37;37.07;100394.53;5072907;28;19925;-82
2022/09/08 02:51:53;;;;;;;;;;;;;;;20.38;36.76;100395.38;5097233;28;19924;-83
2022/09/08 02:54:22;;;;;;;;;;;;;;;20.38;37.16;100390.69;5086227;28;19952;-84
2022/09/08 02:56:51;;;;;;;;;;;;;;;20.39;36.87;100397.97;5076099;28;19950;-83
2022/09/08 02:59:19;;;;;;;;;;;;;;;20.39;37.06;100392.41;5114944;27;19920;-83
2022/09/08 03:01:47;;;;;;;;;;;;;;;20.39;37.33;100397.97;5115006;27;19924;-83
2022/09/08 03:04:15;;;;;;;;;;;;;;;20.39;36.83;100399.88;5094768;28;19927;-83
2022/09/08 03:06:45;;;;;;;;;;;;;;;20.38;36.99;100404.59;5098133;28;19974;-82
2022/09/08 03:09:13;;;;;;;;;;;;;;;20.38;36.93;100401.81;5084572;28;19920;-83
2022/09/08 03:11:40;;;;;;;;;;;;;;;20.38;37.15;100400.94;5091101;28;19920;-83
2022/09/08 03:14:09;;;;;;;;;;;;;;;20.37;37.05;100396.44;5078080;28;19928;-83
2022/09/08 03:16:37;;;;;;;;;;;;;;;20.37;37.66;100397.31;5080175;28;19931;-83
2022/09/08 03:19:04;;;;;;;;;;;;;;;20.35;37.35;100399.47;5079258;28;19986;-84
2022/09/08 03:21:32;;;;;;;;;;;;;;;20.35;37.14;100401.38;5072741;28;19920;-83
2022/09/08 03:24:02;;;;;;;;;;;;;;;20.34;37.30;100405.22;5071477;28;19924;-82
2022/09/08 03:26:30;;;;;;;;;;;;;;;20.33;37.30;100392.41;5103868;28;20417;-83
2022/09/08 03:28:57;;;;;;;;;;;;;;;20.31;37.35;100388.97;5097005;28;19924;-83
2022/09/08 03:31:27;;;;;;;;;;;;;;;20.29;37.55;100391.09;5084327;28;19991;-84
2022/09/08 03:33:55;;;;;;;;;;;;;;;20.28;37.94;100400.50;5081935;28;20075;-83
2022/09/08 03:36:23;;;;;;;;;;;;;;;20.25;37.57;100399.00;5075995;28;20402;-84
2022/09/08 03:38:51;;;;;;;;;;;;;;;20.23;37.83;100387.22;5097177;28;19931;-84
2022/09/08 03:41:20;;;;;;;;;;;;;;;20.20;37.78;100387.63;5077010;28;19959;-84
2022/09/08 03:43:49;;;;;;;;;;;;;;;20.18;38.26;100395.34;5084377;28;19924;-83
2022/09/08 03:46:38;;;;;;;;;;;;;;;;;;;;;
2022/09/08 03:49:19;;;;;;;;;;;;;;;20.12;38.23;100387.00;5054984;28;19935;-84
2022/09/08 03:51:53;;;;;;;;;;;;;;;20.09;38.54;100379.06;5078181;28;20045;-84
2022/09/08 04:03:47;;;;;;;;;;;;;;;19.91;38.42;100387.97;5040223;22;19987;-69
2022/09/08 04:06:16;;;;;;;;;;;;;;;19.88;39.00;100396.66;5009906;28;20397;-69
2022/09/08 04:08:43;;;;;;;;;;;;;;;19.86;39.04;100393.25;5007228;28;20584;-69
2022/09/08 04:11:11;;;;;;;;;;;;;;;19.81;38.94;100388.31;5016611;28;19928;-70
2022/09/08 04:13:40;;;;;;;;;;;;;;;19.79;39.17;100393.22;5012785;28;19925;-69
2022/09/08 04:16:08;;;;;;;;;;;;;;;19.76;38.93;100387.22;5026481;28;19975;-69
2022/09/08 04:18:36;;;;;;;;;;;;;;;19.73;39.08;100385.72;5020116;28;19929;-69
2022/09/08 04:21:04;;;;;;;;;;;;;;;19.71;39.40;100387.81;5011757;28;19921;-69
2022/09/08 04:23:32;;;;;;;;;;;;;;;19.68;39.31;100391.03;5006228;28;20008;-69
2022/09/08 04:26:01;;;;;;;;;;;;;;;19.65;39.67;100383.09;5014291;28;19921;-69
2022/09/08 04:28:29;;;;;;;;;;;;;;;19.63;39.70;100388.00;5014070;28;19925;-70
2022/09/08 04:30:58;;;;;;;;;;;;;;;19.60;39.67;100385.66;5030899;28;19921;-72
2022/09/08 04:33:27;;;;;;;;;;;;;;;19.56;39.95;100390.75;5016090;28;19967;-61
2022/09/08 04:35:54;;;;;;;;;;;;;;;19.54;39.70;100380.94;5012331;28;19922;-62
2022/09/08 04:38:42;;;;;;;;;;;;;;;19.51;39.53;100387.72;5021442;28;19984;-62
2022/09/08 04:41:11;;;;;;;;;;;;;;;19.48;40.01;100385.34;5027829;28;19940;-62
2022/09/08 04:43:40;;;;;;;;;;;;;;;19.47;39.84;100388.31;5029579;28;20329;-61
2022/09/08 04:46:10;;;;;;;;;;;;;;;19.44;39.86;100385.97;5030117;28;19925;-62
2022/09/08 04:48:39;;;;;;;;;;;;;;;19.40;40.32;100379.97;5029550;28;19921;-62
2022/09/08 04:51:06;;;;;;;;;;;;;;;19.40;40.20;100390.22;5012326;28;20004;-61
2022/09/08 04:53:36;;;;;;;;;;;;;;;19.37;40.25;100393.41;5018846;28;19928;-60
2022/09/08 04:56:04;;;;;;;;;;;;;;;19.35;40.18;100390.84;5010526;28;19925;-60
2022/09/08 04:58:32;;;;;;;;;;;;;;;19.33;40.03;100394.84;5014738;28;19929;-60
2022/09/08 05:01:03;;;;;;;;;;;;;;;19.31;40.37;100391.41;5010120;28;19921;-61
2022/09/08 05:03:32;;;;;;;;;;;;;;;19.29;40.50;100397.19;5020128;28;19952;-61
2022/09/08 05:06:03;;;;;;;;;;;;;;;19.27;40.64;100393.75;5027540;28;20401;-62
2022/09/08 05:08:31;;;;;;;;;;;;;;;19.26;40.65;100392.03;5024772;28;19991;-61
2022/09/08 05:10:59;;;;;;;;;;;;;;;19.25;40.77;100393.09;5025022;28;19925;-62
2022/09/08 05:13:26;;;;;;;;;;;;;;;19.23;40.74;100392.44;5028455;28;19978;-62
2022/09/08 05:16:01;;;;;;;;;;;;;;;19.22;41.12;100388.81;5026940;28;19921;-62
2022/09/08 05:18:28;;;;;;;;;;;;;;;19.21;40.78;100400.13;5025878;28;19924;-64
2022/09/08 05:20:57;;;;;;;;;;;;;;;19.21;41.38;100408.44;5024058;28;19925;-62
2022/09/08 05:23:25;;;;;;;;;;;;;;;19.19;40.74;100400.28;5015149;28;19933;-65
2022/09/08 05:25:57;;;;;;;;;;;;;;;19.19;41.25;100399.44;5006601;28;19932;-63
2022/09/08 05:28:25;;;;;;;;;;;;;;;19.18;41.21;100395.81;5017575;28;20007;-62
2022/09/08 05:30:53;;;;;;;;;;;;;;;19.18;41.27;100398.56;5029660;28;19921;-63
2022/09/08 05:33:21;;;;;;;;;;;;;;;19.19;41.45;100402.22;5028636;28;20304;-64
2022/09/08 05:35:49;;;;;;;;;;;;;;;19.19;41.67;100404.97;5029447;28;20391;-62
2022/09/08 05:38:18;;;;;;;;;;;;;;;19.19;41.34;100400.28;5028902;28;19925;-62
2022/09/08 05:40:46;;;;;;;;;;;;;;;19.19;41.63;100402.22;5027212;28;19921;-62
2022/09/08 05:43:14;;;;;;;;;;;;;;;19.19;41.29;100403.06;5013099;28;19928;-62
2022/09/08 05:45:43;;;;;;;;;;;;;;;19.18;41.36;100398.56;5008703;28;19921;-62
2022/09/08 05:48:11;;;;;;;;;;;;;;;19.18;41.80;100397.72;5009063;28;19922;-63
2022/09/08 05:50:41;;;;;;;;;;;;;;;19.17;41.27;100405.19;5009199;28;19921;-62
2022/09/08 05:53:09;;;;;;;;;;;;;;;19.17;41.41;100402.41;5006118;28;19921;-63
2022/09/08 05:55:38;;;;;;;;;;;;;;;19.18;41.82;100406.03;5006836;28;19925;-63
2022/09/08 05:58:05;;;;;;;;;;;;;;;19.18;42.03;100406.91;5007103;28;19921;-62
2022/09/08 06:00:53;;;;;;;;;;;;;;;19.20;42.12;100406.69;5007993;28;20020;-63
2022/09/08 06:03:21;;;;;;;;;;;;;;;19.21;41.71;100414.81;5008232;28;19972;-63
2022/09/08 06:05:49;;;;;;;;;;;;;;;19.24;41.76;100421.91;5008769;28;19968;-62
2022/09/08 06:08:16;;;;;;;;;;;;;;;19.26;41.69;100414.25;5008479;28;19928;-62
2022/09/08 06:10:48;;;;;;;;;;;;;;;19.29;42.02;100419.41;5010019;28;19925;-62
2022/09/08 06:13:16;;;;;;;;;;;;;;;19.31;41.61;100420.03;5009226;28;20275;-62
2022/09/08 06:15:44;;;;;;;;;;;;;;;19.32;42.24;100418.97;5010157;28;19921;-62
2022/09/08 06:18:11;;;;;;;;;;;;;;;19.35;41.95;100426.91;5009337;28;20534;-62
2022/09/08 06:20:39;;;;;;;;;;;;;;;19.36;41.61;100417.53;5041209;28;19975;-62
2022/09/08 06:23:07;;;;;;;;;;;;;;;19.36;41.79;100411.97;5009359;28;19949;-62
2022/09/08 06:25:42;;;;;;;;;;;;;;;19.35;41.75;100410.25;5010134;28;20374;-62
2022/09/08 06:28:24;;;;;;;;;;;;;;;19.33;41.39;100400.41;5009090;28;19922;-62
2022/09/08 06:30:55;;;;;;;;;;;;;;;19.31;41.58;100405.28;5009643;28;19929;-61
2022/09/08 06:33:29;;;;;;;;;;;;;;;19.27;41.63;100405.72;5009652;28;19928;-61
2022/09/08 06:36:00;;;;;;;;;;;;;;;19.24;41.36;100406.13;5009612;28;20068;-61
2022/09/08 06:38:32;;;;;;;;;;;;;;;19.22;41.70;100415.69;5009460;28;19921;-61
2022/09/08 06:41:02;;;;;;;;;;;;;;;19.18;41.41;100429.09;5009732;28;19945;-61
2022/09/08 06:43:33;;;;;;;;;;;;;;;19.17;41.50;100432.06;5009382;28;19921;-61
2022/09/08 06:46:06;;;;;;;;;;;;;;;19.15;41.53;100434.16;5010338;28;20019;-60
2022/09/08 06:48:35;;;;;;;;;;;;;;;19.14;41.67;100438.00;5009121;28;19921;-60
2022/09/08 06:51:08;;;;;;;;;;;;;;;19.12;41.55;100443.78;5009859;28;19921;-57
2022/09/08 06:53:39;;;;;;;;;;;;;;;19.12;41.61;100440.13;5036881;23;19924;-61
2022/09/08 06:56:13;;;;;;;;;;;;;;;19.11;41.44;100444.81;5038809;28;19947;-61
2022/09/08 06:59:02;;;;;;;;;;;;;;;19.11;41.55;100452.28;5022665;28;19928;-61
2022/09/08 07:01:34;;;;;;;;;;;;;;;19.09;41.59;100452.47;5009770;28;20374;-61
2022/09/08 07:04:09;;;;;;;;;;;;;;;19.09;41.63;100448.84;5019907;28;19921;-61
2022/09/08 07:06:40;;;;;;;;;;;;;;;19.08;41.82;100448.00;5015467;28;19932;-61
2022/09/08 07:09:11;;;;;;;;;;;;;;;19.06;41.99;100447.31;5020254;28;19921;-61
2022/09/08 07:11:56;;;;;;;;;;;;;;;19.05;41.59;100447.56;5010848;28;19931;-61
2022/09/08 07:14:33;;;;;;;;;;;;;;;19.03;41.66;100456.06;5012343;28;19927;-61
2022/09/08 07:17:06;;;;;;;;;;;;;;;19.01;42.00;100454.53;5013384;28;20382;-61
2022/09/08 07:19:37;;;;;;;;;;;;;;;18.99;41.56;100449.19;5026336;28;20293;-61
2022/09/08 07:22:17;;;;;;;;;;;;;;;18.98;41.80;100455.78;5011410;28;19968;-61
2022/09/08 07:24:47;;;;;;;;;;;;;;;18.99;42.00;100462.19;5009535;28;19926;-61
2022/09/08 07:27:15;;;;;;;;;;;;;;;18.98;42.16;100460.47;5010174;28;19921;-61
2022/09/08 07:29:44;;;;;;;;;;;;;;;18.99;41.94;100459.41;5014376;28;19924;-61
2022/09/08 07:32:15;;;;;;;;;;;;;;;19.00;42.61;100466.69;5015230;28;19952;-61
2022/09/08 07:34:48;;;;;;;;;;;;;;;19.01;41.97;100465.63;5030447;28;19921;-60
2022/09/08 07:37:18;;;;;;;;;;;;;;;19.00;42.22;100459.22;5031754;28;19920;-73
2022/09/08 07:39:49;;;;;;;;;;;;;;;19.01;42.06;100465.63;5050043;28;20311;-74
2022/09/08 07:42:17;;;;;;;;;;;;;;;19.01;41.88;100473.94;5051453;28;19967;-72
2022/09/08 07:44:48;;;;;;;;;;;;;;;19.01;42.11;100468.41;5050047;28;19920;-73
2022/09/08 07:47:28;;;;;;;;;;;;;;;19.00;42.21;100463.91;5050787;28;20331;-73
2022/09/08 07:50:01;;;;;;;;;;;;;;;18.99;42.68;100464.97;5050105;28;20040;-72
2022/09/08 07:52:33;;;;;;;;;;;;;;;18.97;42.29;100467.94;5049684;28;20012;-72
2022/09/08 07:55:07;;;;;;;;;;;;;;;18.95;42.29;100458.97;5050115;28;19920;-72
2022/09/08 07:57:40;;;;;;;;;;;;;;;18.93;42.27;100460.22;5050970;28;19935;-72
2022/09/08 08:00:11;;;;;;;;;;;;;;;18.90;41.86;100470.63;5051152;28;19921;-71
2022/09/08 08:02:51;;;;;;;;;;;;;;;18.87;42.14;100473.84;5048281;28;19942;-70
2022/09/08 08:05:21;;;;;;;;;;;;;;;18.86;42.10;100476.78;5051027;28;19927;-72
2022/09/08 08:07:56;;;;;;;;;;;;;;;18.83;42.41;100480.81;5049488;28;19920;-70
2022/09/08 08:10:30;;;;;;;;;;;;;;;18.79;42.20;100482.28;5050626;28;19925;-72
2022/09/08 08:13:01;;;;;;;;;;;;;;;18.78;42.69;100491.66;5050324;28;19931;-71
2022/09/08 08:15:33;;;;;;;;;;;;;;;18.75;42.46;100483.72;5051123;28;20423;-71
2022/09/08 08:18:09;;;;;;;;;;;;;;;18.73;42.61;100488.59;5050076;28;19921;-71
2022/09/08 08:20:46;;;;;;;;;;;;;;;18.71;42.26;100485.19;5049090;28;19921;-71
2022/09/08 08:23:26;;;;;;;;;;;;;;;18.69;42.12;100490.06;5049422;28;19927;-71
2022/09/08 08:25:57;;;;;;;;;;;;;;;18.67;42.68;100489.38;5050875;28;19920;-71
2022/09/08 08:28:24;;;;;;;;;;;;;;;18.66;42.16;100495.97;5049660;28;19928;-71
2022/09/08 08:30:59;;;;;;;;;;;;;;;18.65;42.25;100490.63;5050541;28;19927;-71
2022/09/08 08:33:30;;;;;;;;;;;;;;;18.65;42.87;100485.94;5052098;28;20362;-71
2022/09/08 08:36:01;;;;;;;;;;;;;;;18.63;43.01;100488.06;5040432;28;19920;-71
2022/09/08 08:38:42;;;;;;;;;;;;;;;18.66;42.55;100495.13;5057722;28;19974;-70
2022/09/08 08:41:15;;;;;;;;;;;;;;;18.66;43.00;100493.22;5036550;28;20015;-70
2022/09/08 08:43:58;;;;;;;;;;;;;;;18.69;42.78;100491.97;5041506;28;19920;-71
2022/09/08 08:46:31;;;;;;;;;;;;;;;18.72;42.55;100492.41;5047514;28;20295;-71
2022/09/08 08:49:07;;;;;;;;;;;;;;;18.74;42.49;100498.63;5040671;28;19924;-70
2022/09/08 08:51:46;;;;;;;;;;;;;;;18.79;42.36;100490.59;5048771;28;19927;-71
2022/09/08 08:54:36;;;;;;;;;;;;;;;18.82;42.43;100494.88;5055873;28;20015;-71
2022/09/08 08:57:12;;;;;;;;;;;;;;;18.84;43.05;100487.22;5047656;28;20023;-71
2022/09/08 09:00:02;;;;;;;;;;;;;;;18.87;42.94;100496.00;5041596;28;19924;-70
2022/09/08 09:02:42;;;;;;;;;;;;;;;18.91;43.12;100490.91;5040901;28;20270;-70
2022/09/08 09:05:25;;;;;;;;;;;;;;;18.93;43.33;100490.72;5047013;28;20366;-71
2022/09/08 09:08:08;;;;;;;;;;;;;;;18.96;42.63;100495.88;5048312;28;19921;-70
2022/09/08 09:10:44;;;;;;;;;;;;;;;18.98;42.59;100499.28;5040834;28;19959;-70
2022/09/08 09:13:29;;;;;;;;;;;;;;;19.01;43.05;100501.69;5046321;28;19924;-72
2022/09/08 09:16:08;;;;;;;;;;;;;;;19.05;42.97;100498.28;5034703;28;20403;-70
2022/09/08 09:19:02;;;;;;;;;;;;;;;19.12;43.39;100501.16;5048321;28;19948;-70
2022/09/08 09:21:38;;;;;;;;;;;;;;;19.20;43.11;100501.03;5048163;28;19928;-70
2022/09/08 09:24:14;;;;;;;;;;;;;;;19.29;43.48;100499.88;5061055;28;19921;-70
2022/09/08 09:26:46;;;;;;;;;;;;;;;19.39;43.63;100500.34;5044618;28;19927;-70
2022/09/08 09:29:15;;;;;;;;;;;;;;;19.49;43.24;100500.00;5042758;28;19973;-70
2022/09/08 09:32:04;;;;;;;;;;;;;;;19.57;42.58;100499.84;5041828;28;19920;-70
2022/09/08 09:35:02;;;;;;;;;;;;;;;19.68;42.55;100502.09;5044130;28;19959;-70
2022/09/08 09:37:50;;;;;;;;;;;;;;;19.76;42.21;100501.94;4998508;28;20410;-71
2022/09/08 09:40:26;;;;;;;;;;;;;;;19.82;42.31;100492.78;5028739;28;20310;-71
2022/09/08 09:43:03;;;;;;;;;;;;;;;19.89;42.08;100490.03;5034107;28;20119;-70
2022/09/08 09:45:46;;;;;;;;;;;;;;;19.96;42.26;100489.03;5032269;28;20442;-70
2022/09/08 09:48:30;;;;;;;;;;;;;;;20.07;42.47;100481.19;5042911;28;19928;-70
2022/09/08 09:51:06;;;;;;;;;;;;;;;20.18;42.29;100478.72;5044646;28;19921;-70
2022/09/08 09:53:48;;;;;;;;;;;;;;;20.30;42.55;100488.16;5027261;28;19983;-72
2022/09/08 09:56:35;;;;;;;;;;;;;;;20.46;42.29;100478.59;5041852;28;19925;-70
2022/09/08 09:59:17;;;;;;;;;;;;;;;20.61;42.29;100486.81;5043039;28;19921;-72
2022/09/08 10:01:58;;;;;;;;;;;;;;;20.78;41.65;100485.34;5041912;28;20478;-69
2022/09/08 10:04:41;;;;;;;;;;;;;;;20.94;41.46;100489.69;5028790;28;20016;-70
2022/09/08 10:07:20;;;;;;;;;;;;;;;21.08;41.33;100494.19;5039920;28;19927;-71
2022/09/08 10:10:21;;;;;;;;;;;;;;;21.20;41.45;100486.03;5040329;28;19921;-70
2022/09/08 10:13:07;;;;;;;;;;;;;;;21.32;41.08;100495.53;5010884;28;20007;-71
2022/09/08 10:15:59;;;;;;;;;;;;;;;21.43;40.84;100495.75;5021643;28;19922;-70
2022/09/08 10:18:45;;;;;;;;;;;;;;;21.54;41.07;100491.44;5030820;28;19943;-70
2022/09/08 10:21:28;;;;;;;;;;;;;;;21.67;40.48;100476.66;5048814;28;19971;-70
2022/09/08 10:24:14;;;;;;;;;;;;;;;21.80;40.56;100482.19;5047504;28;19920;-70
2022/09/08 10:27:06;;;;;;;;;;;;;;;21.89;40.31;100490.13;5049094;28;19956;-70
2022/09/08 10:29:56;;;;;;;;;;;;;;;22.01;39.94;100493.13;5047399;28;20405;-71
2022/09/08 10:32:42;;;;;;;;;;;;;;;22.09;39.74;100484.53;5048486;28;19921;-72
2022/09/08 10:35:33;;;;;;;;;;;;;;;22.14;39.62;100481.94;5047913;28;19971;-71
2022/09/08 10:38:12;;;;;;;;;;;;;;;22.20;39.38;100483.84;5047086;28;19931;-72
2022/09/08 10:40:46;;;;;;;;;;;;;;;22.26;39.56;100484.91;5035875;28;19920;-71
2022/09/08 10:43:27;;;;;;;;;;;;;;;22.31;39.53;100479.50;5037233;28;19921;-71
2022/09/08 10:46:10;;;;;;;;;;;;;;;22.34;38.79;100475.44;5039514;28;19921;-72
2022/09/08 10:48:53;;;;;;;;;;;;;;;22.39;39.32;100481.19;5047559;28;19927;-72
2022/09/08 10:51:40;;;;;;;;;;;;;;;22.45;38.94;100467.22;5033276;28;20289;-73
2022/09/08 10:54:16;;;;;;;;;;;;;;;22.49;38.77;100473.22;5041414;28;19920;-72
2022/09/08 10:56:45;;;;;;;;;;;;;;;22.54;38.42;100484.56;5047991;28;19991;-71
2022/09/08 10:59:34;;;;;;;;;;;;;;;22.59;38.22;100479.22;5046696;28;20211;-70
2022/09/08 11:02:29;;;;;;;;;;;;;;;22.64;37.96;100485.81;5047458;28;19921;-72
2022/09/08 11:05:18;;;;;;;;;;;;;;;22.68;38.07;100474.19;5043544;28;19928;-71
2022/09/08 11:08:04;;;;;;;;;;;;;;;22.71;37.76;100470.97;5045754;28;20361;-71
2022/09/08 11:10:41;;;;;;;;;;;;;;;22.74;37.80;100473.31;5049083;28;19921;-72
2022/09/08 11:13:26;;;;;;;;;;;;;;;22.76;37.34;100468.34;5031783;28;19921;-72
2022/09/08 11:16:10;;;;;;;;;;;;;;;22.77;37.40;100464.50;5046314;28;19924;-72
2022/09/08 11:18:47;;;;;;;;;;;;;;;22.79;37.53;100462.34;5047821;28;19921;-72
2022/09/08 11:21:20;;;;;;;;;;;;;;;22.81;37.50;100472.22;5049210;28;19921;-71
2022/09/08 11:23:55;;;;;;;;;;;;;;;22.84;37.50;100471.72;5048296;28;19921;-71
2022/09/08 11:26:31;;;;;;;;;;;;;;;22.85;37.02;100462.28;5048424;28;19921;-71
2022/09/08 11:29:02;;;;;;;;;;;;;;;22.86;37.00;100466.78;5047906;28;19920;-71
2022/09/08 11:31:34;;;;;;;;;;;;;;;22.88;36.79;100463.78;5049749;28;19928;-72
2022/09/08 11:34:09;;;;;;;;;;;;;;;22.86;36.36;100464.00;5047732;28;19929;-71
2022/09/08 11:36:46;;;;;;;;;;;;;;;22.85;36.55;100461.44;5041020;28;19931;-72
2022/09/08 11:39:19;;;;;;;;;;;;;;;22.84;36.52;100459.72;5028045;28;20011;-72
2022/09/08 11:41:56;;;;;;;;;;;;;;;22.82;36.76;100453.53;5039151;28;19928;-71
2022/09/08 11:44:42;;;;;;;;;;;;;;;22.81;36.72;100465.78;5048297;28;20443;-72
2022/09/08 11:47:18;;;;;;;;;;;;;;;22.78;36.39;100457.84;5047753;28;19924;-72
2022/09/08 11:50:00;;;;;;;;;;;;;;;22.76;36.09;100458.06;5037791;28;19920;-72
2022/09/08 11:52:59;;;;;;;;;;;;;;;22.74;36.27;100459.38;5051095;28;19967;-71
2022/09/08 11:56:02;;;;;;;;;;;;;;;22.73;36.28;100449.28;5049928;28;19955;-71
2022/09/08 11:58:35;;;;;;;;;;;;;;;22.72;36.23;100455.94;5049195;28;19947;-71
2022/09/08 12:01:09;;;;;;;;;;;;;;;22.71;36.13;100451.44;5041034;28;20019;-71
2022/09/08 12:03:52;;;;;;;;;;;;;;;22.69;35.98;100457.25;5031341;28;20449;-71
2022/09/08 12:06:29;;;;;;;;;;;;;;;22.68;35.84;100446.31;5031200;28;19921;-71
2022/09/08 12:09:16;;;;;;;;;;;;;;;22.66;35.80;100448.47;5030881;28;19965;-71
2022/09/08 12:12:00;;;;;;;;;;;;;;;22.63;35.75;100456.22;5048232;28;19963;-71
2022/09/08 12:14:33;;;;;;;;;;;;;;;22.61;35.83;100444.41;5049505;28;19924;-71
2022/09/08 12:17:10;;;;;;;;;;;;;;;22.61;35.68;100438.84;5039229;28;20247;-73
2022/09/08 12:19:48;;;;;;;;;;;;;;;22.60;35.76;100428.75;5051160;28;19928;-72
2022/09/08 12:22:31;;;;;;;;;;;;;;;22.60;35.88;100434.34;5041183;28;20297;-72
2022/09/08 12:25:12;;;;;;;;;;;;;;;22.60;35.95;100431.53;5010187;28;20309;-71
2022/09/08 12:28:08;;;;;;;;;;;;;;;22.63;36.21;100421.88;5031648;28;19921;-71
2022/09/08 12:30:46;;;;;;;;;;;;;;;22.67;35.89;100422.31;5046552;28;19951;-71
2022/09/08 12:33:30;;;;;;;;;;;;;;;22.70;35.85;100419.91;5030654;28;19928;-71
2022/09/08 12:36:01;;;;;;;;;;;;;;;22.75;35.75;100422.91;5031789;28;20002;-71
2022/09/08 12:38:48;;;;;;;;;;;;;;;22.78;35.53;100416.84;5029134;28;19921;-72
2022/09/08 12:41:23;;;;;;;;;;;;;;;22.84;35.61;100415.06;5050197;28;20408;-72
2022/09/08 12:43:55;;;;;;;;;;;;;;;22.88;35.65;100414.41;5050325;28;19920;-72
2022/09/08 12:46:53;;;;;;;;;;;;;;;22.95;35.41;100431.09;5051191;28;19927;-72
2022/09/08 12:49:33;;;;;;;;;;;;;;;23.00;35.52;100425.72;5050023;28;20321;-72
2022/09/08 12:52:02;;;;;;;;;;;;;;;23.07;35.57;100420.94;5050545;28;19960;-72
2022/09/08 12:57:36;;;;;;;;;;;;;;;23.18;35.12;100424.94;5043259;28;19970;-70
2022/09/08 13:00:07;;;;;;;;;;;;;;;23.24;35.01;100424.91;5013733;28;20281;-72
2022/09/08 13:02:55;;;;;;;;;;;;;;;23.28;34.88;100428.94;5022581;28;19927;-72
2022/09/08 13:05:47;;;;;;;;;;;;;;;23.32;34.54;100429.34;4975921;28;19929;-72
2022/09/08 13:08:22;;;;;;;;;;;;;;;23.33;34.42;100425.47;4948809;28;19922;-63
2022/09/08 13:10:53;;;;;;;;;;;;;;;23.34;34.09;100422.41;4993106;28;19999;-63
2022/09/08 13:13:41;;;;;;;;;;;;;;;23.33;33.99;100417.91;5003521;28;19929;-63
2022/09/08 13:16:24;;;;;;;;;;;;;;;23.34;33.96;100424.34;4995385;28;19921;-62
2022/09/08 13:19:01;;;;;;;;;;;;;;;23.34;34.21;100416.84;4994780;28;19925;-62
2022/09/08 13:21:35;;;;;;;;;;;;;;;23.35;34.40;100426.94;4990600;28;20024;-62
2022/09/08 13:24:06;;;;;;;;;;;;;;;23.37;34.20;100415.53;4998822;28;20374;-62
2022/09/08 13:26:41;;;;;;;;;;;;;;;23.40;34.22;100423.47;5003659;28;20029;-62
2022/09/08 13:29:18;;;;;;;;;;;;;;;23.44;34.35;100432.22;4993722;28;20009;-64
2022/09/08 13:32:15;;;;;;;;;;;;;;;23.49;33.87;100429.63;4998697;28;20370;-63
2022/09/08 13:34:52;;;;;;;;;;;;;;;23.53;33.97;100425.25;4988582;28;19955;-64
2022/09/08 13:37:33;;;;;;;;;;;;;;;23.58;34.07;100431.84;4996069;28;19933;-63
2022/09/08 13:40:12;;;;;;;;;;;;;;;23.62;33.42;100435.06;4991734;28;20348;-63
2022/09/08 13:42:53;;;;;;;;;;;;;;;23.66;33.78;100437.13;4995773;28;20301;-64
2022/09/08 13:45:25;;;;;;;;;;;;;;;23.69;33.26;100431.09;4995256;28;19937;-64
2022/09/08 13:48:22;;;;;;;;;;;;;;;23.72;33.38;100429.78;4989043;28;20297;-63
2022/09/08 13:51:00;;;;;;;;;;;;;;;23.75;33.49;100432.97;4995808;28;20024;-65
2022/09/08 13:53:38;;;;;;;;;;;;;;;23.79;33.04;100421.38;4988002;28;19922;-63
2022/09/08 13:56:17;;;;;;;;;;;;;;;23.80;33.41;100426.72;5000347;28;19968;-64
2022/09/08 13:58:45;;;;;;;;;;;;;;;23.83;33.09;100426.25;4991463;28;19941;-64
2022/09/08 14:01:29;;;;;;;;;;;;;;;23.87;33.23;100429.44;4996408;28;19981;-63
2022/09/08 14:04:02;;;;;;;;;;;;;;;23.90;32.93;100434.59;5005777;28;19929;-64
2022/09/08 14:06:31;;;;;;;;;;;;;;;23.93;33.06;100437.75;5018252;28;20408;-63
2022/09/08 14:09:01;;;;;;;;;;;;;;;23.95;32.85;100431.94;5015620;28;19983;-63
2022/09/08 14:11:37;;;;;;;;;;;;;;;23.97;32.85;100426.97;5017811;28;19929;-62
2022/09/08 14:14:25;;;;;;;;;;;;;;;23.98;32.84;100428.69;5013606;28;19922;-63
2022/09/08 14:17:05;;;;;;;;;;;;;;;23.98;32.43;100431.47;5022963;28;19921;-64
2022/09/08 14:19:44;;;;;;;;;;;;;;;23.96;32.00;100428.91;5021357;28;20277;-65
2022/09/08 14:22:16;;;;;;;;;;;;;;;23.94;32.04;100431.06;5021958;28;20011;-65
2022/09/08 14:24:50;;;;;;;;;;;;;;;23.93;32.12;100434.94;5020629;28;19971;-65